Time;durP1;ratioP1;P1;durP2;ratioP2;P2;SDS_P1;SDS_P2;PMS_P1;PMS_P2;Temp;Humidity;BMP_temperature;BMP_pressure;BME280_temperature;BME280_humidity;BME280_pressure;Samples;Min_cycle;Max_cycle;Signal;HPM_P1;HPM_P2
2024/02/03 00:02:21;;;;;;;9.27;3.37;;;4.30;99.90;;;;;;4418588;28;656593;-68
2024/02/03 00:05:09;;;;;;;11.97;4.73;;;4.30;99.90;;;;;;4421792;28;655362;-68
2024/02/03 00:07:56;;;;;;;16.63;6.90;;;4.20;99.90;;;;;;4436708;28;656988;-68
2024/02/03 00:10:43;;;;;;;20.47;9.93;;;4.20;99.90;;;;;;4412684;28;656995;-69
2024/02/03 00:13:32;;;;;;;19.53;6.53;;;4.20;99.90;;;;;;4431390;28;657270;-68
2024/02/03 00:16:19;;;;;;;14.93;8.20;;;4.10;99.90;;;;;;4393104;28;656807;-69
2024/02/03 00:19:06;;;;;;;12.00;6.30;;;4.10;99.90;;;;;;4424900;28;656075;-68
2024/02/03 00:21:53;;;;;;;18.60;8.77;;;4.20;99.90;;;;;;4406434;28;656658;-69
2024/02/03 00:24:41;;;;;;;17.98;7.97;;;4.20;99.90;;;;;;4441220;28;657267;-69
2024/02/03 00:27:28;;;;;;;18.70;8.40;;;4.10;99.90;;;;;;4408990;28;656619;-69
2024/02/03 00:30:17;;;;;;;18.00;8.50;;;4.20;99.90;;;;;;4422362;28;658085;-68
2024/02/03 00:33:04;;;;;;;13.20;7.53;;;4.20;99.90;;;;;;4392931;28;656141;-69
2024/02/03 00:35:51;;;;;;;17.10;7.40;;;4.20;99.90;;;;;;4432139;28;655844;-68
2024/02/03 00:38:38;;;;;;;21.33;7.53;;;4.20;99.90;;;;;;4414784;28;656505;-68
2024/02/03 00:41:26;;;;;;;16.03;7.20;;;4.30;99.90;;;;;;4423661;28;657391;-68
2024/02/03 00:44:14;;;;;;;18.93;7.50;;;4.30;99.90;;;;;;4414606;28;656590;-68
2024/02/03 00:47:03;;;;;;;20.13;7.07;;;4.30;99.90;;;;;;4445262;28;656240;-68
2024/02/03 00:49:50;;;;;;;9.87;3.77;;;4.40;99.90;;;;;;4416573;28;657464;-68
2024/02/03 00:52:37;;;;;;;20.10;9.07;;;4.40;99.90;;;;;;4432632;28;655947;-69
2024/02/03 00:55:25;;;;;;;15.57;8.30;;;4.30;99.90;;;;;;4438515;28;656936;-68
2024/02/03 00:58:12;;;;;;;16.27;8.00;;;4.30;99.90;;;;;;4440453;28;656994;-69
2024/02/03 01:01:00;;;;;;;13.50;7.37;;;4.30;99.90;;;;;;4438853;28;656771;-68
2024/02/03 01:03:48;;;;;;;17.13;7.67;;;4.30;99.90;;;;;;4421304;28;656843;-68
2024/02/03 01:06:35;;;;;;;9.10;3.87;;;4.40;99.90;;;;;;4414830;28;656867;-68
2024/02/03 01:09:23;;;;;;;14.15;7.35;;;4.40;99.90;;;;;;4410489;28;655950;-70
2024/02/03 01:12:10;;;;;;;19.07;7.20;;;4.30;99.90;;;;;;4423511;28;656807;-68
2024/02/03 01:14:57;;;;;;;14.33;7.57;;;4.40;99.90;;;;;;4397449;28;657374;-70
2024/02/03 01:17:44;;;;;;;12.87;6.40;;;4.40;99.90;;;;;;4429826;28;656682;-68
2024/02/03 01:20:33;;;;;;;11.07;6.17;;;4.30;99.90;;;;;;4433510;28;656737;-68
2024/02/03 01:23:20;;;;;;;18.47;8.20;;;4.30;99.90;;;;;;4400243;28;657625;-68
2024/02/03 01:26:08;;;;;;;15.60;8.00;;;4.30;99.90;;;;;;4417677;28;657394;-69
2024/02/03 01:28:55;;;;;;;16.27;7.63;;;4.30;99.90;;;;;;4436646;28;657491;-68
2024/02/03 01:31:42;;;;;;;20.50;8.73;;;4.30;99.90;;;;;;4424928;28;656722;-68
2024/02/03 01:34:30;;;;;;;11.47;3.43;;;4.30;99.90;;;;;;4431229;28;656797;-68
2024/02/03 01:37:19;;;;;;;15.97;8.40;;;4.40;99.90;;;;;;4420589;28;656351;-69
2024/02/03 01:40:07;;;;;;;20.53;8.10;;;4.30;99.90;;;;;;4440006;28;656619;-68
2024/02/03 01:42:59;;;;;;;24.60;7.80;;;4.40;99.90;;;;;;4416755;28;657048;-68
2024/02/03 01:45:46;;;;;;;14.60;7.03;;;4.40;99.90;;;;;;4411095;28;657362;-68
2024/02/03 01:48:33;;;;;;;18.23;9.17;;;4.40;99.90;;;;;;4426780;28;657080;-68
2024/02/03 01:51:20;;;;;;;12.43;5.40;;;4.40;99.90;;;;;;4433839;28;657742;-68
2024/02/03 01:54:09;;;;;;;17.33;8.97;;;4.40;99.90;;;;;;4421712;28;656953;-68
2024/02/03 01:56:57;;;;;;;18.13;8.40;;;4.40;99.90;;;;;;4433452;28;656448;-68
2024/02/03 01:59:44;;;;;;;18.27;8.40;;;4.50;99.90;;;;;;4395336;28;656802;-68
2024/02/03 02:02:32;;;;;;;14.80;7.70;;;4.50;99.90;;;;;;4419071;28;656611;-68
2024/02/03 02:05:19;;;;;;;7.97;3.40;;;4.50;99.90;;;;;;4400067;28;657552;-69
2024/02/03 02:08:07;;;;;;;19.63;9.90;;;4.50;99.90;;;;;;4440910;28;655326;-69
2024/02/03 02:10:55;;;;;;;7.73;3.60;;;4.50;99.90;;;;;;4421960;28;656975;-68
2024/02/03 02:13:43;;;;;;;18.53;9.30;;;4.50;99.90;;;;;;4424827;28;655690;-70
2024/02/03 02:16:30;;;;;;;22.77;9.30;;;4.60;99.90;;;;;;4432495;28;657611;-68
2024/02/03 02:19:18;;;;;;;12.33;7.00;;;4.60;99.90;;;;;;4428002;28;657070;-69
2024/02/03 02:22:06;;;;;;;14.73;7.00;;;4.60;99.90;;;;;;4429383;28;657406;-68
2024/02/03 02:24:53;;;;;;;19.48;9.02;;;4.60;99.90;;;;;;4406740;28;657554;-68
2024/02/03 02:27:41;;;;;;;9.33;4.50;;;4.70;99.90;;;;;;4418462;28;657113;-68
2024/02/03 02:30:28;;;;;;;17.30;7.87;;;4.80;99.90;;;;;;4412066;28;656258;-68
2024/02/03 02:33:15;;;;;;;15.27;6.97;;;4.80;99.90;;;;;;4437646;28;658319;-69
2024/02/03 02:36:02;;;;;;;17.30;8.10;;;4.90;99.90;;;;;;4405930;28;656672;-70
2024/02/03 02:38:51;;;;;;;12.07;5.90;;;4.80;99.90;;;;;;4445223;28;656886;-68
2024/02/03 02:41:38;;;;;;;16.07;6.77;;;4.90;99.90;;;;;;4420986;28;656680;-69
2024/02/03 02:44:25;;;;;;;15.73;7.27;;;4.90;99.90;;;;;;4440896;28;656972;-69
2024/02/03 02:47:12;;;;;;;16.23;5.40;;;4.90;99.90;;;;;;4416693;28;656780;-69
2024/02/03 02:50:00;;;;;;;13.40;5.20;;;4.90;99.90;;;;;;4439729;28;657397;-68
2024/02/03 02:52:47;;;;;;;16.77;6.73;;;5.00;99.90;;;;;;4436203;28;656636;-69
2024/02/03 02:55:36;;;;;;;17.43;7.47;;;5.00;99.90;;;;;;4446366;28;656364;-68
2024/02/03 02:58:23;;;;;;;18.40;7.80;;;4.90;99.90;;;;;;4425405;28;656484;-68
2024/02/03 03:01:10;;;;;;;14.10;8.00;;;5.00;99.90;;;;;;4426661;28;657040;-68
2024/02/03 03:03:58;;;;;;;19.02;7.47;;;5.10;99.90;;;;;;4415704;28;656071;-70
2024/02/03 03:06:45;;;;;;;19.20;7.83;;;5.10;99.90;;;;;;4441363;28;658020;-68
2024/02/03 03:09:32;;;;;;;21.10;7.83;;;5.00;99.90;;;;;;4423546;28;656522;-69
2024/02/03 03:12:21;;;;;;;8.63;4.10;;;5.10;99.90;;;;;;4422603;28;657297;-68
2024/02/03 03:15:09;;;;;;;11.50;5.27;;;5.10;99.90;;;;;;4410197;28;655502;-69
2024/02/03 03:17:56;;;;;;;14.73;6.43;;;5.10;99.90;;;;;;4411554;28;657398;-69
2024/02/03 03:20:43;;;;;;;14.63;6.90;;;5.20;99.90;;;;;;4409463;28;656705;-68
2024/02/03 03:23:30;;;;;;;22.20;8.67;;;5.20;99.90;;;;;;4416273;28;657385;-68
2024/02/03 03:26:17;;;;;;;16.92;7.82;;;5.10;99.90;;;;;;4409402;28;656476;-70
2024/02/03 03:29:07;;;;;;;9.40;5.30;;;5.20;99.90;;;;;;4448158;28;656898;-68
2024/02/03 03:31:54;;;;;;;16.27;8.00;;;5.20;99.90;;;;;;4425778;28;655328;-68
2024/02/03 03:34:41;;;;;;;16.70;7.80;;;5.20;99.90;;;;;;4419410;28;657325;-69
2024/02/03 03:37:28;;;;;;;16.00;5.00;;;5.20;99.90;;;;;;4423474;28;657362;-69
2024/02/03 03:40:16;;;;;;;9.47;4.33;;;5.20;99.90;;;;;;4416146;28;657014;-68
2024/02/03 03:43:03;;;;;;;5.50;3.03;;;5.20;99.90;;;;;;4403470;28;655701;-67
2024/02/03 03:45:52;;;;;;;14.03;6.03;;;5.10;99.90;;;;;;4433614;28;656098;-69
2024/02/03 03:48:39;;;;;;;16.30;7.47;;;5.20;99.90;;;;;;4414509;28;656778;-68
2024/02/03 03:51:27;;;;;;;9.37;5.30;;;5.20;99.90;;;;;;4431517;28;657447;-69
2024/02/03 03:54:15;;;;;;;15.53;8.50;;;5.20;99.90;;;;;;4427738;28;655330;-69
2024/02/03 03:57:02;;;;;;;18.43;9.20;;;5.10;99.90;;;;;;4443206;28;656612;-69
2024/02/03 03:59:50;;;;;;;23.40;8.57;;;5.10;99.90;;;;;;4444480;28;656806;-69
2024/02/03 04:02:39;;;;;;;21.60;9.53;;;5.10;99.90;;;;;;4431807;28;657008;-68
2024/02/03 04:05:26;;;;;;;16.33;8.07;;;5.10;99.90;;;;;;4403573;28;657807;-69
2024/02/03 04:08:13;;;;;;;18.27;8.93;;;5.10;99.90;;;;;;4418456;28;656825;-68
2024/02/03 04:11:01;;;;;;;18.13;8.60;;;5.10;99.90;;;;;;4421715;28;657378;-69
2024/02/03 04:13:48;;;;;;;17.77;9.37;;;5.10;99.90;;;;;;4406598;28;656628;-69
2024/02/03 04:16:35;;;;;;;7.43;3.50;;;5.10;99.90;;;;;;4442789;28;656996;-69
2024/02/03 04:19:24;;;;;;;19.33;9.30;;;5.20;99.90;;;;;;4412439;28;656154;-69
2024/02/03 04:22:12;;;;;;;17.37;8.73;;;5.10;99.90;;;;;;4444534;28;657177;-68
2024/02/03 04:24:59;;;;;;;14.40;7.97;;;5.10;99.90;;;;;;4414401;28;657659;-69
2024/02/03 04:27:46;;;;;;;20.63;9.30;;;5.10;99.90;;;;;;4433556;28;656894;-68
2024/02/03 04:30:33;;;;;;;22.52;9.85;;;5.10;99.90;;;;;;4415354;28;656382;-68
2024/02/03 04:33:21;;;;;;;19.33;9.80;;;5.10;99.90;;;;;;4434629;28;656858;-68
2024/02/03 04:36:10;;;;;;;17.37;8.03;;;5.10;99.90;;;;;;4417967;28;656836;-68
2024/02/03 04:38:57;;;;;;;12.95;7.45;;;5.20;99.90;;;;;;4421582;28;656893;-69
2024/02/03 04:41:45;;;;;;;16.83;8.77;;;5.20;99.90;;;;;;4443214;28;656377;-68
2024/02/03 04:44:32;;;;;;;16.20;8.27;;;5.10;99.90;;;;;;4439228;28;655646;-69
2024/02/03 04:47:19;;;;;;;17.30;7.70;;;5.20;99.90;;;;;;4420436;28;656456;-69
2024/02/03 04:50:07;;;;;;;18.67;8.40;;;5.20;99.90;;;;;;4435577;28;656491;-69
2024/02/03 04:52:56;;;;;;;8.33;4.03;;;5.20;99.90;;;;;;4412549;28;656722;-69
2024/02/03 04:55:43;;;;;;;13.50;7.23;;;5.20;99.90;;;;;;4418461;28;655644;-69
2024/02/03 04:58:31;;;;;;;16.23;6.10;;;5.30;99.90;;;;;;4420833;28;656605;-69
2024/02/03 05:01:18;;;;;;;21.87;10.17;;;5.30;99.90;;;;;;4408572;28;656542;-69
2024/02/03 05:04:05;;;;;;;12.33;6.23;;;5.20;99.90;;;;;;4434022;28;658208;-69
2024/02/03 05:06:52;;;;;;;21.80;10.15;;;5.20;99.90;;;;;;4420116;28;656798;-69
2024/02/03 05:09:41;;;;;;;21.97;8.70;;;5.20;99.90;;;;;;4430604;28;657515;-69
2024/02/03 05:12:28;;;;;;;16.33;8.67;;;5.20;99.90;;;;;;4394459;28;657092;-69
2024/02/03 05:15:18;;;;;;;14.67;7.80;;;5.20;99.90;;;;;;4435490;28;656933;-69
2024/02/03 05:18:06;;;;;;;14.40;7.20;;;5.10;99.90;;;;;;4410342;28;656890;-69
2024/02/03 05:20:53;;;;;;;12.70;7.37;;;5.20;99.90;;;;;;4414392;28;656975;-68
2024/02/03 05:23:40;;;;;;;16.80;8.20;;;5.20;99.90;;;;;;4431611;28;657031;-69
2024/02/03 05:26:29;;;;;;;20.52;10.02;;;5.20;99.90;;;;;;4410771;28;657110;-69
2024/02/03 05:29:16;;;;;;;19.87;10.20;;;5.20;99.90;;;;;;4425738;28;657594;-69
2024/02/03 05:32:04;;;;;;;20.23;8.47;;;5.20;99.90;;;;;;4407579;28;658425;-69
2024/02/03 05:34:51;;;;;;;15.73;8.40;;;5.20;99.90;;;;;;4428248;28;656825;-69
2024/02/03 05:37:38;;;;;;;22.60;10.47;;;5.20;99.90;;;;;;4407800;28;656645;-69
2024/02/03 05:40:25;;;;;;;17.57;8.57;;;5.20;99.90;;;;;;4425236;28;658686;-69
2024/02/03 05:43:14;;;;;;;17.83;8.77;;;5.20;99.90;;;;;;4416764;28;657016;-70
2024/02/03 05:46:01;;;;;;;15.37;7.80;;;5.30;99.90;;;;;;4437885;28;655980;-69
2024/02/03 05:48:48;;;;;;;18.33;7.90;;;5.20;99.90;;;;;;4408701;28;656908;-68
2024/02/03 05:51:36;;;;;;;18.05;8.60;;;5.30;99.90;;;;;;4435450;28;657593;-68
2024/02/03 05:54:23;;;;;;;18.90;8.50;;;5.30;99.90;;;;;;4401737;28;656533;-69
2024/02/03 05:57:11;;;;;;;20.60;9.37;;;5.30;99.90;;;;;;4421336;28;657281;-68
2024/02/03 06:00:00;;;;;;;12.23;5.23;;;5.30;99.90;;;;;;4401782;28;657103;-69
2024/02/03 06:02:47;;;;;;;15.27;7.57;;;5.40;99.90;;;;;;4425931;28;656249;-69
2024/02/03 06:05:34;;;;;;;16.80;8.30;;;5.40;99.90;;;;;;4415213;28;656660;-69
2024/02/03 06:08:21;;;;;;;6.47;3.67;;;5.40;99.90;;;;;;4421045;28;657590;-68
2024/02/03 06:11:09;;;;;;;16.10;7.77;;;5.40;99.90;;;;;;4392567;28;656270;-69
2024/02/03 06:13:56;;;;;;;16.77;8.07;;;5.50;99.90;;;;;;4439335;28;657732;-69
2024/02/03 06:16:45;;;;;;;15.03;7.30;;;5.50;99.90;;;;;;4420995;28;656811;-69
2024/02/03 06:19:32;;;;;;;14.13;6.87;;;5.50;99.90;;;;;;4419813;28;657096;-69
2024/02/03 06:22:20;;;;;;;17.20;7.90;;;5.50;99.90;;;;;;4433273;28;657044;-69
2024/02/03 06:25:07;;;;;;;14.07;6.40;;;5.50;99.90;;;;;;4430899;28;656787;-68
2024/02/03 06:27:54;;;;;;;18.43;8.47;;;5.50;99.90;;;;;;4394662;28;657628;-69
2024/02/03 06:30:41;;;;;;;16.90;7.90;;;5.60;99.90;;;;;;4438513;28;656712;-69
2024/02/03 06:33:30;;;;;;;17.47;7.30;;;5.60;99.90;;;;;;4408827;28;656863;-69
2024/02/03 06:36:17;;;;;;;16.33;8.13;;;5.60;99.90;;;;;;4422127;28;656532;-70
2024/02/03 06:39:05;;;;;;;15.50;6.40;;;5.60;99.90;;;;;;4437263;28;656776;-69
2024/02/03 06:41:52;;;;;;;14.17;7.80;;;5.60;99.90;;;;;;4438024;28;656857;-70
2024/02/03 06:44:39;;;;;;;12.13;5.03;;;5.60;99.90;;;;;;4393126;28;657200;-69
2024/02/03 06:47:26;;;;;;;12.00;5.83;;;5.60;99.90;;;;;;4426508;28;656781;-69
2024/02/03 06:50:15;;;;;;;12.87;3.93;;;5.60;99.90;;;;;;4417200;28;656553;-69
2024/02/03 06:53:03;;;;;;;20.03;8.57;;;5.70;99.90;;;;;;4429257;28;657041;-69
2024/02/03 06:55:50;;;;;;;13.27;7.03;;;5.60;99.90;;;;;;4434029;28;657437;-69
2024/02/03 06:58:37;;;;;;;12.93;7.17;;;5.70;99.90;;;;;;4417854;28;656413;-69
2024/02/03 07:01:25;;;;;;;14.63;6.57;;;5.60;99.90;;;;;;4434993;28;656452;-69
2024/02/03 07:04:12;;;;;;;13.90;7.57;;;5.70;99.90;;;;;;4434228;28;655705;-69
2024/02/03 07:07:02;;;;;;;18.07;8.13;;;5.70;99.90;;;;;;4409248;28;656543;-69
2024/02/03 07:09:49;;;;;;;12.23;4.93;;;5.70;99.90;;;;;;4407023;28;657435;-68
2024/02/03 07:12:37;;;;;;;13.10;7.20;;;5.80;99.90;;;;;;4436942;28;657275;-68
2024/02/03 07:15:24;;;;;;;17.00;7.80;;;5.70;99.90;;;;;;4422659;28;657121;-69
2024/02/03 07:18:11;;;;;;;12.63;5.10;;;5.80;99.90;;;;;;4439674;28;656693;-70
2024/02/03 07:20:58;;;;;;;14.97;6.17;;;5.80;99.90;;;;;;4407253;28;656541;-69
2024/02/03 07:23:47;;;;;;;16.27;7.47;;;5.80;99.90;;;;;;4439077;28;657070;-69
2024/02/03 07:26:34;;;;;;;10.37;4.20;;;5.80;99.90;;;;;;4417205;28;656938;-69
2024/02/03 07:29:21;;;;;;;11.63;6.70;;;5.90;99.90;;;;;;4437007;28;656898;-68
2024/02/03 07:32:08;;;;;;;12.80;6.47;;;5.90;99.90;;;;;;4414141;28;657441;-69
2024/02/03 07:34:55;;;;;;;13.63;7.30;;;5.90;99.90;;;;;;4435937;28;657608;-69
2024/02/03 07:37:43;;;;;;;16.27;7.63;;;5.90;99.90;;;;;;4425818;28;657102;-68
2024/02/03 07:40:31;;;;;;;12.27;6.47;;;5.90;99.90;;;;;;4426111;28;657937;-67
2024/02/03 07:43:18;;;;;;;10.77;4.53;;;5.90;99.90;;;;;;4409768;28;657223;-67
2024/02/03 07:46:05;;;;;;;16.87;7.27;;;5.90;99.90;;;;;;4429218;28;657028;-68
2024/02/03 07:48:53;;;;;;;17.33;6.37;;;5.90;99.90;;;;;;4395046;28;656929;-69
2024/02/03 07:51:40;;;;;;;16.53;7.37;;;5.90;99.90;;;;;;4434726;28;657513;-69
2024/02/03 07:54:28;;;;;;;20.37;7.13;;;5.90;99.90;;;;;;4418101;28;656510;-69
2024/02/03 07:57:16;;;;;;;15.67;7.23;;;6.00;99.90;;;;;;4433060;28;657591;-69
2024/02/03 08:00:04;;;;;;;13.43;7.07;;;6.00;99.90;;;;;;4422210;28;656547;-69
2024/02/03 08:02:51;;;;;;;17.93;7.77;;;6.00;99.90;;;;;;4438058;28;656603;-69
2024/02/03 08:05:38;;;;;;;14.73;6.40;;;6.00;99.90;;;;;;4413263;28;656951;-69
2024/02/03 08:08:25;;;;;;;17.03;7.83;;;6.10;99.90;;;;;;4435333;28;657633;-68
2024/02/03 08:11:12;;;;;;;9.57;5.20;;;6.10;99.90;;;;;;4410078;28;657166;-69
2024/02/03 08:14:01;;;;;;;18.50;8.40;;;6.10;99.90;;;;;;4443508;28;656104;-68
2024/02/03 08:16:48;;;;;;;15.23;5.67;;;6.20;99.90;;;;;;4404384;28;656590;-69
2024/02/03 08:19:38;;;;;;;12.17;7.73;;;6.20;99.90;;;;;;4437660;28;657497;-68
2024/02/03 08:22:25;;;;;;;21.77;8.33;;;6.20;99.90;;;;;;4407244;28;657399;-68
2024/02/03 08:25:12;;;;;;;11.87;5.00;;;6.20;99.90;;;;;;4418982;28;656975;-69
2024/02/03 08:28:00;;;;;;;10.50;5.90;;;6.20;99.90;;;;;;4442318;28;656481;-68
2024/02/03 08:30:49;;;;;;;18.07;7.53;;;6.20;99.90;;;;;;4403889;28;656143;-69
2024/02/03 08:33:36;;;;;;;20.50;8.63;;;6.20;99.90;;;;;;4425350;28;657440;-68
2024/02/03 08:36:23;;;;;;;16.30;7.63;;;6.30;99.90;;;;;;4411521;28;656940;-68
2024/02/03 08:39:10;;;;;;;16.83;8.50;;;6.30;99.90;;;;;;4442804;28;656666;-73
2024/02/03 08:41:57;;;;;;;18.13;9.35;;;6.30;99.90;;;;;;4415904;28;656857;-72
2024/02/03 08:44:45;;;;;;;14.80;6.80;;;6.30;99.90;;;;;;4423860;28;657202;-73
2024/02/03 08:47:33;;;;;;;16.77;8.77;;;6.30;99.90;;;;;;4435433;28;656054;-73
2024/02/03 08:50:20;;;;;;;15.67;7.83;;;6.40;99.90;;;;;;4397508;28;656651;-72
2024/02/03 08:53:08;;;;;;;15.33;7.13;;;6.40;99.90;;;;;;4422362;28;656656;-73
2024/02/03 08:55:55;;;;;;;16.13;8.33;;;6.50;99.90;;;;;;4428789;28;657223;-72
2024/02/03 08:58:43;;;;;;;18.07;7.00;;;6.50;99.90;;;;;;4396079;28;657191;-73
2024/02/03 09:01:30;;;;;;;13.17;6.23;;;6.50;99.90;;;;;;4428061;28;656772;-72
2024/02/03 09:04:19;;;;;;;13.33;7.47;;;6.50;99.90;;;;;;4438234;28;656538;-73
2024/02/03 09:07:06;;;;;;;14.27;7.30;;;6.50;99.90;;;;;;4432485;28;656752;-72
2024/02/03 09:09:53;;;;;;;16.08;8.25;;;6.60;99.90;;;;;;4407008;28;656128;-73
2024/02/03 09:12:40;;;;;;;19.17;8.90;;;6.60;99.90;;;;;;4436700;28;656699;-73
2024/02/03 09:15:27;;;;;;;14.73;7.60;;;6.60;99.90;;;;;;4411886;28;657854;-73
2024/02/03 09:18:15;;;;;;;16.37;8.93;;;6.70;99.90;;;;;;4426404;28;656516;-73
2024/02/03 09:21:03;;;;;;;16.43;8.57;;;6.70;99.90;;;;;;4430590;28;656523;-72
2024/02/03 09:23:50;;;;;;;19.60;9.43;;;6.60;99.90;;;;;;4405640;28;657323;-72
2024/02/03 09:26:39;;;;;;;13.47;5.77;;;6.60;99.90;;;;;;4417013;28;656466;-73
2024/02/03 09:29:27;;;;;;;17.63;9.13;;;6.60;99.90;;;;;;4432397;28;657155;-72
2024/02/03 09:32:14;;;;;;;18.97;8.57;;;6.60;99.90;;;;;;4410380;28;656332;-72
2024/02/03 09:35:02;;;;;;;16.93;9.07;;;6.60;99.90;;;;;;4427994;28;656754;-72
2024/02/03 09:37:51;;;;;;;15.53;7.53;;;6.70;99.90;;;;;;4400715;28;656453;-72
2024/02/03 09:40:38;;;;;;;18.10;9.77;;;6.70;99.90;;;;;;4407527;28;656420;-73
2024/02/03 09:43:26;;;;;;;17.63;8.43;;;6.70;99.90;;;;;;4428527;28;657501;-72
2024/02/03 09:46:13;;;;;;;19.73;8.87;;;6.80;99.90;;;;;;4419123;28;656531;-73
2024/02/03 09:49:00;;;;;;;15.00;7.70;;;6.80;99.90;;;;;;4437886;28;657862;-72
2024/02/03 09:51:47;;;;;;;17.40;8.83;;;6.90;99.90;;;;;;4422833;28;656502;-73
2024/02/03 09:54:36;;;;;;;14.23;7.93;;;7.00;99.90;;;;;;4426334;28;656624;-73
2024/02/03 09:57:23;;;;;;;18.30;8.57;;;7.00;99.90;;;;;;4419257;28;656658;-73
2024/02/03 10:00:12;;;;;;;15.07;7.20;;;7.00;99.90;;;;;;4440185;28;656955;-72
2024/02/03 10:02:59;;;;;;;19.33;8.97;;;7.10;99.90;;;;;;4414794;28;657579;-72
2024/02/03 10:05:46;;;;;;;15.27;8.27;;;7.10;99.90;;;;;;4436704;28;656908;-72
2024/02/03 10:08:34;;;;;;;15.30;7.73;;;7.10;99.90;;;;;;4411015;28;657101;-72
2024/02/03 10:11:22;;;;;;;15.63;7.27;;;7.10;99.90;;;;;;4442390;28;657099;-72
2024/02/03 10:14:09;;;;;;;16.03;7.67;;;7.10;99.90;;;;;;4417878;28;656944;-72
2024/02/03 10:16:57;;;;;;;12.93;7.13;;;7.20;99.90;;;;;;4436600;28;657464;-73
2024/02/03 10:19:44;;;;;;;8.87;4.60;;;7.00;99.90;;;;;;4405040;28;656591;-73
2024/02/03 10:22:31;;;;;;;20.03;7.27;;;7.00;99.90;;;;;;4431509;28;655540;-73
2024/02/03 10:25:22;;;;;;;13.70;8.10;;;6.90;99.90;;;;;;4413120;28;656626;-71
2024/02/03 10:28:11;;;;;;;14.67;8.33;;;6.80;99.90;;;;;;4402569;28;656189;-73
2024/02/03 10:31:03;;;;;;;16.37;6.43;;;6.70;99.90;;;;;;4421965;28;656921;-72
2024/02/03 10:33:50;;;;;;;17.40;9.23;;;6.70;99.90;;;;;;4403347;28;657440;-73
2024/02/03 10:36:38;;;;;;;14.88;8.02;;;6.70;99.90;;;;;;4399681;28;656643;-73
2024/02/03 10:39:25;;;;;;;19.17;10.20;;;6.60;99.90;;;;;;4438111;28;657131;-72
2024/02/03 10:42:16;;;;;;;17.73;10.23;;;6.50;99.90;;;;;;4421646;28;658488;-74
2024/02/03 10:45:06;;;;;;;20.70;9.90;;;6.50;99.90;;;;;;4412655;28;658569;-73
2024/02/03 10:47:54;;;;;;;21.17;12.50;;;6.40;99.90;;;;;;4415570;28;656818;-73
2024/02/03 10:50:43;;;;;;;14.97;6.97;;;6.40;99.90;;;;;;4431599;28;657775;-73
2024/02/03 10:53:32;;;;;;;23.63;12.37;;;6.40;99.90;;;;;;4411279;28;657798;-72
2024/02/03 10:56:19;;;;;;;23.73;14.53;;;6.40;99.90;;;;;;4410517;28;657822;-71
2024/02/03 10:59:06;;;;;;;22.73;12.93;;;6.30;99.90;;;;;;4436393;28;657385;-72
2024/02/03 11:01:55;;;;;;;25.27;14.47;;;6.30;99.90;;;;;;4406922;28;657878;-73
2024/02/03 11:04:42;;;;;;;23.70;13.27;;;6.30;99.90;;;;;;4420321;28;657713;-72
2024/02/03 11:07:31;;;;;;;26.87;15.40;;;6.30;99.90;;;;;;4435603;28;657772;-72
2024/02/03 11:10:19;;;;;;;28.57;17.23;;;6.20;99.90;;;;;;4415200;28;657325;-72
2024/02/03 11:13:21;;;;;;;22.10;12.63;;;6.20;99.90;;;;;;4437197;28;658126;-72
2024/02/03 11:16:09;;;;;;;31.53;15.23;;;6.30;99.90;;;;;;4410020;28;657517;-72
2024/02/03 11:18:57;;;;;;;41.13;22.20;;;6.20;99.90;;;;;;4436206;28;658212;-72
2024/02/03 11:21:44;;;;;;;41.17;24.57;;;6.20;99.90;;;;;;4412615;28;658330;-72
2024/02/03 11:24:33;;;;;;;34.73;19.60;;;6.20;99.90;;;;;;4428863;28;657437;-73
2024/02/03 11:27:20;;;;;;;40.97;21.40;;;6.20;99.90;;;;;;4412400;28;658238;-73
2024/02/03 11:30:08;;;;;;;32.43;13.00;;;6.20;99.90;;;;;;4426247;28;657337;-73
2024/02/03 11:32:56;;;;;;;29.97;15.40;;;6.20;99.90;;;;;;4434612;28;658226;-72
2024/02/03 11:35:47;;;;;;;41.33;21.17;;;6.10;99.90;;;;;;4417818;28;657552;-72
2024/02/03 11:38:34;;;;;;;34.10;18.63;;;6.20;99.90;;;;;;4410584;28;658171;-71
2024/02/03 11:41:22;;;;;;;31.63;13.27;;;6.20;99.90;;;;;;4431200;28;656779;-72
2024/02/03 11:44:09;;;;;;;30.40;15.73;;;6.20;99.90;;;;;;4414496;28;658226;-72
2024/02/03 11:46:57;;;;;;;35.03;18.43;;;6.20;99.90;;;;;;4432704;28;657425;-72
2024/02/03 11:49:44;;;;;;;36.20;18.23;;;6.20;99.90;;;;;;4408856;28;657778;-71
2024/02/03 11:52:33;;;;;;;33.30;18.77;;;6.20;99.90;;;;;;4424147;28;657786;-71
2024/02/03 11:55:20;;;;;;;37.57;21.00;;;6.20;99.90;;;;;;4416611;28;657823;-72
2024/02/03 11:58:07;;;;;;;32.17;20.07;;;6.20;99.90;;;;;;4424565;28;657976;-71
2024/02/03 12:01:02;;;;;;;38.00;20.63;;;6.20;99.90;;;;;;4432182;28;657952;-72
2024/02/03 12:03:49;;;;;;;39.33;20.20;;;6.20;99.90;;;;;;4408310;28;657770;-71
2024/02/03 12:06:36;;;;;;;37.97;19.70;;;6.20;99.90;;;;;;4412762;28;657494;-72
2024/02/03 12:09:25;;;;;;;40.20;22.40;;;6.20;99.90;;;;;;4403982;28;657760;-73
2024/02/03 12:12:12;;;;;;;28.43;13.70;;;6.20;99.90;;;;;;4432500;28;657641;-72
2024/02/03 12:15:00;;;;;;;41.07;22.17;;;6.30;99.90;;;;;;4431018;28;657912;-72
2024/02/03 12:17:47;;;;;;;32.73;15.87;;;6.30;99.90;;;;;;4430007;28;657329;-72
2024/02/03 12:20:35;;;;;;;39.13;16.83;;;6.30;99.90;;;;;;4432749;28;658051;-72
2024/02/03 12:23:22;;;;;;;27.10;12.80;;;6.30;99.90;;;;;;4427350;28;657821;-71
2024/02/03 12:26:11;;;;;;;37.57;19.30;;;6.30;99.90;;;;;;4437751;28;657586;-72
2024/02/03 12:28:58;;;;;;;38.23;20.90;;;6.30;99.90;;;;;;4395097;28;658010;-71
2024/02/03 12:31:46;;;;;;;45.10;23.85;;;6.30;99.90;;;;;;4425975;28;658574;-70
2024/02/03 12:34:33;;;;;;;50.57;26.90;;;6.30;99.90;;;;;;4417568;28;657879;-71
2024/02/03 12:37:20;;;;;;;44.97;24.80;;;6.30;99.90;;;;;;4432070;28;658634;-71
2024/02/03 12:40:09;;;;;;;45.90;22.93;;;6.30;99.90;;;;;;4415373;28;657911;-72
2024/02/03 12:42:58;;;;;;;34.57;16.97;;;6.40;99.90;;;;;;4424818;28;656935;-72
2024/02/03 12:45:46;;;;;;;42.53;25.87;;;6.40;99.90;;;;;;4411810;28;657475;-72
2024/02/03 12:48:33;;;;;;;39.90;20.60;;;6.40;99.90;;;;;;4408200;28;657274;-73
2024/02/03 12:51:20;;;;;;;30.43;16.23;;;6.40;99.90;;;;;;4433088;28;658353;-72
2024/02/03 12:54:07;;;;;;;51.33;30.15;;;6.40;99.90;;;;;;4413153;28;657258;-73
2024/02/03 12:56:55;;;;;;;50.33;25.07;;;6.40;99.90;;;;;;4436037;28;657456;-72
2024/02/03 12:59:43;;;;;;;56.27;30.33;;;6.40;99.90;;;;;;4432323;28;657234;-72
2024/02/03 13:02:32;;;;;;;42.10;22.03;;;6.40;99.90;;;;;;4416503;28;658295;-72
2024/02/03 13:05:19;;;;;;;59.80;30.20;;;6.40;99.90;;;;;;4408855;28;657921;-73
2024/02/03 13:08:07;;;;;;;53.40;29.63;;;6.40;99.90;;;;;;4434478;28;657299;-73
2024/02/03 13:10:54;;;;;;;53.67;28.60;;;6.40;99.90;;;;;;4412910;28;657637;-73
2024/02/03 13:13:41;;;;;;;50.30;26.50;;;6.40;99.90;;;;;;4429127;28;657719;-72
2024/02/03 13:16:31;;;;;;;55.70;29.90;;;6.50;99.90;;;;;;4417549;28;657741;-72
2024/02/03 13:19:18;;;;;;;67.23;32.00;;;6.50;99.90;;;;;;4409275;28;657694;-73
2024/02/03 13:22:05;;;;;;;56.70;30.80;;;6.50;99.90;;;;;;4434519;28;658032;-73
2024/02/03 13:24:52;;;;;;;56.60;29.75;;;6.60;99.90;;;;;;4421202;28;658003;-73
2024/02/03 13:27:40;;;;;;;56.17;30.97;;;6.60;99.90;;;;;;4440149;28;657791;-73
2024/02/03 13:30:27;;;;;;;55.37;30.60;;;6.70;99.90;;;;;;4431018;28;657907;-74
2024/02/03 13:33:16;;;;;;;57.87;30.73;;;6.70;99.90;;;;;;4412896;28;658280;-74
2024/02/03 13:36:03;;;;;;;61.53;34.83;;;6.70;99.90;;;;;;4394128;28;657792;-74
2024/02/03 13:38:50;;;;;;;74.13;33.77;;;6.70;99.90;;;;;;4431814;28;657581;-73
2024/02/03 13:41:37;;;;;;;49.03;23.90;;;6.70;99.90;;;;;;4419125;28;657651;-74
2024/02/03 13:44:25;;;;;;;51.03;26.13;;;6.70;99.90;;;;;;4421547;28;658614;-74
2024/02/03 13:47:12;;;;;;;59.10;30.13;;;6.70;99.90;;;;;;4427254;28;657230;-73
2024/02/03 13:50:00;;;;;;;50.80;25.43;;;6.70;99.90;;;;;;4411890;28;658103;-74
2024/02/03 13:52:47;;;;;;;36.55;17.10;;;6.80;99.90;;;;;;4410072;28;657737;-74
2024/02/03 13:55:35;;;;;;;27.93;13.60;;;6.80;99.90;;;;;;4437043;28;657950;-74
2024/02/03 13:58:23;;;;;;;43.70;24.17;;;6.80;99.90;;;;;;4397034;28;657427;-74
2024/02/03 14:01:10;;;;;;;45.60;26.83;;;6.80;99.90;;;;;;4430792;28;659036;-75
2024/02/03 14:03:57;;;;;;;44.23;25.37;;;6.80;99.90;;;;;;4439262;28;657793;-73
2024/02/03 14:06:46;;;;;;;46.80;25.80;;;6.80;99.90;;;;;;4429286;28;657425;-71
2024/02/03 14:09:33;;;;;;;44.50;25.97;;;6.90;99.90;;;;;;4412690;28;658116;-74
2024/02/03 14:12:20;;;;;;;36.23;14.43;;;6.90;99.90;;;;;;4434519;28;657995;-75
2024/02/03 14:15:09;;;;;;;46.33;26.40;;;6.80;99.90;;;;;;4413702;28;658344;-75
2024/02/03 14:17:57;;;;;;;46.83;25.53;;;6.90;99.90;;;;;;4429076;28;657478;-75
2024/02/03 14:20:44;;;;;;;36.60;20.03;;;6.90;99.90;;;;;;4404533;28;657804;-75